Pocasset, Massachusetts
Current Conditions -  °F | °C
As of 5:35 AM on Saturday 22 Nov 2014 (Local Time) from KFMH Reporting Station
Clear Clear  
Wind Chill: 15°   Ceiling: Unl
Heat Index: 25°   Visibility: 10mi
Dew Point: 12°   Wind: 9mph
Humidity: 59%   Direction: 280°W
Pressure: 30.43"   Gusts: NA
Location:  41.69°N, 70.64°W
Report Text: KFMH 221035Z AUTO 28008KT 10SM CLR M04/M11 A3043 RMK AO2
Loading
Personal Weather Stations






























Interactive Weather Map New forecast layout! Learn more

10-Day Weather Forecast

Advertisements
Track Severe Weather on mobile